Terminal Aerodrome Forecast
Issued by NWS Sioux Falls, SD

Home | Current Version | Previous Version | Text Only | Print | Product List | Glossary On
Versions: 1 2 3 4 5 6 7 8 9 10 11 12 13
000
FTUS43 KFSD 241138
TAFSUX
TAF
KSUX 241138Z 2412/2512 14006KT P6SM FEW250 WS010/19035KT
     FM241400 15009KT P6SM SCT250
     FM241600 17014KT P6SM SCT200
     FM241800 18015G23KT P6SM VCTS SCT050CB
     FM242300 25009KT P6SM SHRA SCT070
     FM250200 30007KT P6SM SHRA BKN070
     FM250500 33007KT P6SM SHRA OVC030=

USA.gov is the U.S. government's official web portal to all federal, state and local government web resources and services.